createdAt,value
2019-06-20T00:00:50.237Z,20.57
2019-06-20T00:03:25.901Z,20.50
2019-06-20T00:05:59.281Z,24.43
2019-06-20T00:08:32.655Z,27.55
2019-06-20T00:11:08.003Z,30.60
2019-06-20T00:13:42.433Z,29.82
2019-06-20T00:16:16.893Z,31.52
2019-06-20T00:18:50.426Z,26.65
2019-06-20T00:21:27.030Z,26.55
2019-06-20T00:24:02.692Z,21.42
2019-06-20T00:26:38.581Z,22.32
2019-06-20T00:29:14.688Z,19.55
2019-06-20T00:31:48.169Z,23.35
2019-06-20T00:34:21.905Z,22.00
2019-06-20T00:36:55.357Z,26.97
2019-06-20T00:39:28.789Z,27.87
2019-06-20T00:42:02.244Z,27.80
2019-06-20T00:44:35.586Z,26.15
2019-06-20T00:47:10.003Z,24.45
2019-06-20T00:49:45.974Z,21.60
2019-06-20T00:52:21.641Z,19.62
2019-06-20T00:54:56.736Z,19.80
2019-06-20T00:57:30.283Z,20.08
2019-06-20T01:00:06.936Z,23.05
2019-06-20T01:02:44.322Z,22.40
2019-06-20T01:05:17.799Z,22.50
2019-06-20T01:07:58.518Z,22.77
2019-06-20T01:10:29.663Z,20.02
2019-06-20T01:13:04.611Z,25.62
2019-06-20T01:15:41.088Z,24.55
2019-06-20T01:18:14.355Z,26.68
2019-06-20T01:20:50.167Z,21.52
2019-06-20T01:23:28.430Z,23.25
2019-06-20T01:26:08.902Z,18.87
2019-06-20T01:28:44.923Z,18.98
2019-06-20T01:31:18.437Z,23.18
2019-06-20T01:33:51.752Z,20.02
2019-06-20T01:36:25.138Z,22.70
2019-06-20T01:38:58.355Z,20.43
2019-06-20T01:41:31.696Z,22.87
2019-06-20T01:44:05.113Z,20.02
2019-06-20T01:46:38.418Z,19.32
2019-06-20T01:49:12.098Z,20.00
2019-06-20T01:51:45.490Z,22.40
2019-06-20T01:54:18.777Z,22.05
2019-06-20T01:56:52.146Z,38.80
2019-06-20T01:59:25.464Z,17.67
2019-06-20T02:01:58.886Z,18.57
2019-06-20T02:04:32.238Z,20.12
2019-06-20T02:07:06.641Z,22.45
2019-06-20T02:09:40.072Z,20.52
2019-06-20T02:12:13.435Z,18.42
2019-06-20T02:14:46.818Z,26.97
2019-06-20T02:17:20.765Z,21.33
2019-06-20T02:19:54.333Z,21.95
2019-06-20T02:22:27.711Z,21.93
2019-06-20T02:25:00.981Z,21.87
2019-06-20T02:27:34.201Z,22.93
2019-06-20T02:30:07.868Z,20.90
2019-06-20T02:32:43.350Z,22.52
2019-06-20T02:35:19.939Z,20.77
2019-06-20T02:37:55.910Z,24.98
2019-06-20T02:40:31.538Z,23.35
2019-06-20T02:43:06.352Z,24.95
2019-06-20T02:45:40.459Z,21.20
2019-06-20T02:48:16.587Z,21.87
2019-06-20T02:50:53.581Z,20.27
2019-06-20T02:53:28.206Z,23.27
2019-06-20T02:56:02.132Z,22.22
2019-06-20T02:58:39.988Z,22.82
2019-06-20T03:01:16.830Z,25.50
2019-06-20T03:03:54.301Z,21.93
2019-06-20T03:06:41.566Z,23.52
2019-06-20T03:09:07.519Z,27.75
2019-06-20T03:11:43.156Z,24.27
2019-06-20T03:14:18.620Z,29.50
2019-06-20T03:16:58.512Z,18.10
2019-06-20T03:19:32.021Z,26.42
2019-06-20T03:22:06.062Z,24.72
2019-06-20T03:24:42.598Z,26.87
2019-06-20T03:27:17.642Z,24.77
2019-06-20T03:29:52.714Z,24.65
2019-06-20T03:32:29.181Z,27.75
2019-06-20T03:35:02.810Z,23.83
2019-06-20T03:37:40.482Z,21.35
2019-06-20T03:40:16.642Z,21.82
2019-06-20T03:42:50.533Z,20.05
2019-06-20T03:45:33.264Z,19.10
2019-06-20T03:48:07.992Z,22.80
2019-06-20T03:50:44.694Z,20.10
2019-06-20T03:53:21.383Z,20.85
2019-06-20T03:55:56.595Z,23.50
2019-06-20T03:58:35.958Z,21.23
2019-06-20T04:01:09.592Z,21.12
2019-06-20T04:03:44.003Z,20.82
2019-06-20T04:06:36.014Z,22.45
2019-06-20T04:09:02.127Z,19.73
2019-06-20T04:11:38.679Z,19.82
2019-06-20T04:14:13.779Z,22.73
2019-06-20T04:16:49.487Z,23.80
2019-06-20T04:19:24.350Z,19.70
2019-06-20T04:22:04.447Z,20.55
2019-06-20T04:24:41.873Z,18.45
2019-06-20T04:27:16.423Z,17.70
2019-06-20T04:29:55.192Z,19.87
2019-06-20T04:32:30.702Z,18.62
2019-06-20T04:35:06.003Z,18.02
2019-06-20T04:37:39.616Z,18.75
2019-06-20T04:40:14.768Z,22.40
2019-06-20T04:42:50.959Z,20.12
2019-06-20T04:45:58.896Z,19.92
2019-06-20T04:48:33.260Z,18.07
2019-06-20T04:51:10.456Z,21.87
2019-06-20T04:53:43.793Z,18.48
2019-06-20T04:56:17.229Z,22.85
2019-06-20T04:58:50.664Z,17.98
2019-06-20T05:01:24.004Z,19.32
2019-06-20T05:03:58.205Z,15.08
2019-06-20T05:06:31.799Z,13.70
2019-06-20T05:09:06.988Z,18.48
2019-06-20T05:11:40.419Z,17.92
2019-06-20T05:14:13.717Z,13.20
2019-06-20T05:16:51.561Z,13.22
2019-06-20T05:19:25.247Z,15.20
2019-06-20T05:21:58.656Z,11.40
2019-06-20T05:24:32.138Z,9.50
2019-06-20T05:27:05.658Z,11.40
2019-06-20T05:29:40.109Z,10.40
2019-06-20T05:32:21.982Z,12.58
2019-06-20T05:35:08.615Z,11.12
2019-06-20T05:37:42.242Z,9.55
2019-06-20T05:40:16.626Z,10.55
2019-06-20T05:42:50.770Z,9.25
2019-06-20T05:45:24.215Z,10.20
2019-06-20T05:47:57.885Z,11.00
2019-06-20T05:50:33.621Z,9.28
2019-06-20T05:53:08.564Z,11.08
2019-06-20T05:55:42.036Z,9.75
2019-06-20T05:58:19.684Z,8.85
2019-06-20T06:00:53.729Z,11.95
2019-06-20T06:03:29.083Z,10.13
2019-06-20T06:06:05.707Z,10.80
2019-06-20T06:08:42.766Z,10.32
2019-06-20T06:11:16.958Z,10.98
2019-06-20T06:13:53.539Z,8.33
2019-06-20T06:16:31.465Z,9.65
2019-06-20T06:19:06.923Z,9.30
2019-06-20T06:21:41.985Z,8.18
2019-06-20T06:24:21.180Z,10.72
2019-06-20T06:26:53.733Z,10.48
2019-06-20T06:29:33.147Z,9.50
2019-06-20T06:32:09.096Z,9.98
2019-06-20T06:34:45.710Z,12.95
2019-06-20T06:37:19.158Z,8.83
2019-06-20T06:39:55.050Z,10.43
2019-06-20T06:42:29.699Z,8.65
2019-06-20T06:45:03.141Z,12.85
2019-06-20T06:47:46.981Z,9.90
2019-06-20T06:50:26.220Z,8.50
2019-06-20T06:53:01.310Z,8.75
2019-06-20T06:55:35.602Z,10.05
2019-06-20T06:58:09.035Z,9.53
2019-06-20T07:00:45.386Z,12.88
2019-06-20T07:03:19.737Z,9.45
2019-06-20T07:05:57.427Z,14.03
2019-06-20T07:08:32.280Z,7.12
2019-06-20T07:11:06.345Z,6.47
2019-06-20T07:13:44.411Z,10.15
2019-06-20T07:16:18.509Z,8.10
2019-06-20T07:19:01.108Z,8.40
2019-06-20T07:21:34.761Z,7.53
2019-06-20T07:24:09.806Z,9.30
2019-06-20T07:26:44.795Z,8.33
2019-06-20T07:29:18.358Z,6.80
2019-06-20T07:31:53.700Z,7.25
2019-06-20T07:34:40.768Z,11.68
2019-06-20T07:37:10.840Z,10.00
2019-06-20T07:39:53.441Z,10.28
2019-06-20T07:42:33.303Z,7.87
2019-06-20T07:45:11.801Z,9.85
2019-06-20T07:47:55.078Z,8.28
2019-06-20T08:01:35.348Z,5.85
2019-06-20T08:04:09.064Z,7.30
2019-06-20T08:06:43.455Z,10.55
2019-06-20T08:09:16.828Z,10.10
2019-06-20T08:11:50.393Z,11.18
2019-06-20T08:14:23.935Z,8.83
2019-06-20T08:16:58.397Z,6.53
2019-06-20T08:19:32.514Z,5.92
2019-06-20T08:22:09.947Z,5.58
2019-06-20T08:24:44.548Z,9.43
2019-06-20T08:27:19.546Z,6.45
2019-06-20T08:29:52.829Z,5.65
2019-06-20T08:32:26.209Z,9.70
2019-06-20T08:35:00.545Z,7.30
2019-06-20T08:37:34.219Z,8.60
2019-06-20T08:40:08.486Z,5.83
2019-06-20T08:42:42.477Z,5.70
2019-06-20T08:45:17.656Z,5.72
2019-06-20T08:47:50.979Z,6.30
2019-06-20T08:50:24.707Z,7.72
2019-06-20T08:52:58.504Z,7.60
2019-06-20T08:55:32.917Z,7.60
2019-06-20T08:58:06.369Z,4.65
2019-06-20T09:00:41.324Z,5.78
2019-06-20T09:03:14.759Z,4.60
2019-06-20T09:05:48.025Z,5.70
2019-06-20T09:08:21.630Z,8.38
2019-06-20T09:10:55.705Z,4.00
2019-06-20T09:13:29.036Z,5.75
2019-06-20T09:16:03.055Z,4.75
2019-06-20T09:18:36.444Z,3.90
2019-06-20T09:21:09.612Z,7.37
2019-06-20T09:23:43.023Z,5.85
2019-06-20T09:26:16.371Z,6.30
2019-06-20T09:28:51.019Z,3.90
2019-06-20T09:31:24.505Z,4.95
2019-06-20T09:34:03.710Z,6.80
2019-06-20T09:36:35.539Z,6.67
2019-06-20T09:39:09.844Z,5.08
2019-06-20T09:41:43.129Z,5.72
2019-06-20T09:44:16.615Z,4.90
2019-06-20T09:46:51.187Z,6.87
2019-06-20T09:49:25.033Z,5.03
2019-06-20T09:51:58.705Z,8.50
2019-06-20T09:54:32.488Z,6.45
2019-06-20T09:57:06.007Z,5.33
2019-06-20T09:59:40.797Z,6.20
2019-06-20T10:02:14.205Z,9.28
2019-06-20T10:04:49.158Z,4.85
2019-06-20T10:07:22.544Z,5.67
2019-06-20T10:09:56.961Z,7.12
2019-06-20T10:12:30.327Z,8.15
2019-06-20T10:15:03.605Z,5.97
2019-06-20T10:17:36.978Z,7.35
2019-06-20T10:20:11.020Z,6.17
2019-06-20T10:22:45.879Z,6.83
2019-06-20T10:25:23.285Z,7.58
2019-06-20T10:27:57.906Z,5.78
2019-06-20T10:30:31.770Z,7.80
2019-06-20T10:33:05.642Z,5.75
2019-06-20T10:35:39.052Z,6.78
2019-06-20T10:38:12.387Z,7.75
2019-06-20T10:40:46.359Z,7.35
2019-06-20T10:43:20.113Z,6.78
2019-06-20T10:45:53.552Z,7.70
2019-06-20T10:48:26.959Z,6.20
2019-06-20T10:51:19.037Z,9.13
2019-06-20T10:53:53.414Z,10.23
2019-06-20T10:56:26.836Z,6.45
2019-06-20T10:59:00.347Z,10.20
2019-06-20T11:01:35.055Z,8.78
2019-06-20T11:04:10.550Z,10.60
2019-06-20T11:06:47.612Z,5.65
2019-06-20T11:09:24.057Z,6.45
2019-06-20T11:11:58.325Z,5.30
2019-06-20T11:14:34.270Z,8.05
2019-06-20T11:17:07.898Z,6.25
2019-06-20T11:19:41.575Z,5.42
2019-06-20T11:22:15.260Z,4.85
2019-06-20T11:24:50.168Z,5.67
2019-06-20T11:27:24.396Z,6.40
2019-06-20T11:29:57.911Z,4.95
2019-06-20T11:32:31.348Z,7.60
2019-06-20T11:35:05.656Z,5.53
2019-06-20T11:37:39.679Z,8.58
2019-06-20T11:40:16.010Z,6.22
2019-06-20T11:42:49.712Z,8.00
2019-06-20T11:45:24.576Z,5.75
2019-06-20T11:47:59.233Z,9.28
2019-06-20T11:50:35.011Z,7.75
2019-06-20T11:53:09.082Z,6.85
2019-06-20T11:55:42.917Z,6.83
2019-06-20T11:58:16.641Z,13.03
2019-06-20T12:01:03.041Z,7.75
2019-06-20T12:03:26.198Z,6.87
2019-06-20T12:05:59.677Z,6.35
2019-06-20T12:08:34.547Z,7.45
2019-06-20T12:11:08.226Z,7.55
2019-06-20T12:13:42.102Z,7.35
2019-06-20T12:16:15.508Z,5.90
2019-06-20T12:18:49.443Z,8.38
2019-06-20T12:21:22.930Z,6.08
2019-06-20T12:23:56.469Z,7.10
2019-06-20T12:26:29.972Z,14.30
2019-06-20T12:29:03.402Z,9.58
2019-06-20T12:31:36.881Z,6.62
2019-06-20T12:34:10.582Z,7.37
2019-06-20T12:36:44.426Z,7.15
2019-06-20T12:39:17.730Z,7.25
2019-06-20T12:41:51.035Z,7.90
2019-06-20T12:44:26.259Z,8.85
2019-06-20T12:46:59.729Z,6.72
2019-06-20T12:49:33.580Z,7.40
2019-06-20T12:52:06.926Z,8.80
2019-06-20T12:54:43.232Z,8.53
2019-06-20T12:57:16.821Z,7.30
2019-06-20T12:59:50.061Z,6.30
2019-06-20T13:02:23.411Z,7.10
2019-06-20T13:04:57.021Z,7.90
2019-06-20T13:07:30.779Z,7.17
2019-06-20T13:10:04.118Z,5.78
2019-06-20T13:12:40.707Z,7.22
2019-06-20T13:15:13.935Z,6.47
2019-06-20T13:17:48.889Z,9.15
2019-06-20T13:20:23.777Z,7.10
2019-06-20T13:22:58.052Z,7.42
2019-06-20T13:25:35.013Z,6.20
2019-06-20T13:28:10.998Z,5.83
2019-06-20T13:30:48.611Z,7.42
2019-06-20T13:33:19.892Z,9.90
2019-06-20T13:35:55.659Z,6.83
2019-06-20T13:38:29.876Z,5.83
2019-06-20T13:41:06.147Z,6.45
2019-06-20T13:43:39.387Z,10.55
2019-06-20T13:46:12.617Z,8.88
2019-06-20T13:48:47.492Z,17.27
2019-06-20T13:51:20.770Z,8.00
2019-06-20T13:53:53.886Z,6.70
2019-06-20T13:56:27.068Z,6.20
2019-06-20T13:59:01.365Z,6.28
2019-06-20T14:01:34.524Z,6.85
2019-06-20T14:04:07.876Z,5.22
2019-06-20T14:06:42.096Z,6.35
2019-06-20T14:09:16.685Z,10.68
2019-06-20T14:11:51.440Z,6.47
2019-06-20T14:14:24.627Z,7.60
2019-06-20T14:16:58.634Z,7.05
2019-06-20T14:19:31.785Z,11.53
2019-06-20T14:22:06.220Z,10.10
2019-06-20T14:24:39.277Z,7.95
2019-06-20T14:27:12.359Z,21.20
2019-06-20T14:29:46.528Z,23.02
2019-06-20T14:32:22.352Z,17.82
2019-06-20T14:34:54.428Z,32.25
2019-06-20T14:37:27.534Z,22.85
2019-06-20T14:40:00.760Z,22.35
2019-06-20T14:42:34.021Z,15.72
2019-06-20T14:45:07.628Z,10.88
2019-06-20T14:47:40.791Z,8.00
2019-06-20T14:50:15.531Z,8.13
2019-06-20T14:52:50.012Z,8.90
2019-06-20T14:55:29.870Z,10.10
2019-06-20T14:58:03.337Z,22.40
2019-06-20T15:00:36.593Z,15.63
2019-06-20T15:03:09.825Z,13.15
2019-06-20T15:05:44.775Z,16.67
2019-06-20T15:08:18.419Z,12.55
2019-06-20T15:10:51.925Z,9.60
2019-06-20T15:13:26.199Z,11.53
2019-06-20T15:15:59.438Z,15.25
2019-06-20T15:18:32.877Z,10.90
2019-06-20T15:21:06.195Z,14.55
2019-06-20T15:23:39.369Z,7.95
2019-06-20T15:26:12.642Z,8.73
2019-06-20T15:28:47.650Z,7.70
2019-06-20T15:31:21.048Z,8.28
2019-06-20T15:33:55.146Z,8.15
2019-06-20T15:36:28.765Z,9.25
2019-06-20T15:39:01.998Z,7.00
2019-06-20T15:41:36.823Z,12.98
2019-06-20T15:44:10.149Z,9.35
2019-06-20T15:46:43.372Z,9.50
2019-06-20T15:49:16.714Z,8.83
2019-06-20T15:51:49.952Z,11.08
2019-06-20T15:54:24.553Z,12.50
2019-06-20T15:56:57.830Z,12.78
2019-06-20T15:59:31.060Z,7.45
2019-06-20T16:02:04.258Z,7.90
2019-06-20T16:04:37.564Z,5.10
2019-06-20T16:07:11.811Z,5.50
2019-06-20T16:09:45.070Z,6.78
2019-06-20T16:12:18.296Z,10.78
2019-06-20T16:14:51.573Z,6.40
2019-06-20T16:17:24.769Z,7.08
2019-06-20T16:19:57.992Z,10.40
2019-06-20T16:22:31.118Z,7.83
2019-06-20T16:25:04.456Z,6.17
2019-06-20T16:27:37.741Z,7.58
2019-06-20T16:30:11.921Z,8.83
2019-06-20T16:32:45.225Z,10.95
2019-06-20T16:35:19.797Z,8.13
2019-06-20T16:37:53.022Z,9.65
2019-06-20T16:40:44.204Z,9.73
2019-06-20T16:43:17.525Z,10.00
2019-06-20T16:45:50.610Z,8.68
2019-06-20T16:48:23.807Z,9.90
2019-06-20T16:50:56.998Z,11.78
2019-06-20T16:53:30.230Z,7.58
2019-06-20T16:56:03.426Z,11.20
2019-06-20T16:58:36.518Z,9.93
2019-06-20T17:01:09.768Z,9.25
2019-06-20T17:03:42.918Z,8.88
2019-06-20T17:06:16.080Z,12.55
2019-06-20T17:08:50.285Z,7.72
2019-06-20T17:11:23.535Z,7.72
2019-06-20T17:13:56.818Z,7.50
2019-06-20T17:16:29.977Z,8.10
2019-06-20T17:19:03.122Z,7.58
2019-06-20T17:21:37.386Z,9.68
2019-06-20T17:24:10.730Z,7.33
2019-06-20T17:26:43.890Z,7.58
2019-06-20T17:29:17.115Z,6.47
2019-06-20T17:31:50.350Z,6.05
2019-06-20T17:34:23.489Z,8.45
2019-06-20T17:36:56.816Z,5.83
2019-06-20T17:39:29.925Z,5.25
2019-06-20T17:42:03.159Z,4.97
2019-06-20T17:44:36.242Z,6.78
2019-06-20T17:47:09.347Z,6.45
2019-06-20T17:49:42.591Z,14.60
2019-06-20T17:52:15.708Z,11.18
2019-06-20T17:54:48.881Z,8.55
2019-06-20T17:57:22.047Z,7.33
2019-06-20T17:59:55.336Z,7.22
2019-06-20T18:02:28.541Z,8.85
2019-06-20T18:05:03.397Z,7.83
2019-06-20T18:07:36.572Z,6.70
2019-06-20T18:10:10.490Z,7.03
2019-06-20T18:12:43.626Z,6.03
2019-06-20T18:15:17.357Z,7.03
2019-06-20T18:17:50.671Z,8.85
2019-06-20T18:20:25.119Z,5.75
2019-06-20T18:22:58.402Z,5.28
2019-06-20T18:25:31.887Z,4.72
2019-06-20T18:28:05.189Z,5.17
2019-06-20T18:30:44.527Z,4.42
2019-06-20T18:33:17.750Z,4.60
2019-06-20T18:35:51.023Z,5.42
2019-06-20T18:38:24.217Z,4.42
2019-06-20T18:40:58.461Z,5.45
2019-06-20T18:43:31.732Z,5.08
2019-06-20T18:46:04.839Z,6.70
2019-06-20T18:48:37.983Z,7.33
2019-06-20T18:51:11.047Z,8.18
2019-06-20T18:53:44.180Z,6.55
2019-06-20T18:56:17.336Z,6.00
2019-06-20T18:58:50.498Z,7.65
2019-06-20T19:01:23.773Z,12.20
2019-06-20T19:03:57.035Z,10.00
2019-06-20T19:06:35.879Z,11.43
2019-06-20T19:09:08.591Z,10.85
2019-06-20T19:11:42.824Z,9.05
2019-06-20T19:14:16.011Z,6.37
2019-06-20T19:16:49.286Z,6.78
2019-06-20T19:19:22.490Z,7.72
2019-06-20T19:21:55.616Z,6.45
2019-06-20T19:24:28.837Z,8.33
2019-06-20T19:27:01.998Z,8.13
2019-06-20T19:29:35.201Z,9.20
2019-06-20T19:32:09.354Z,9.65
2019-06-20T19:34:43.039Z,6.20
2019-06-20T19:37:16.737Z,9.30
2019-06-20T19:39:52.957Z,6.62
2019-06-20T19:42:28.117Z,7.47
2019-06-20T19:45:04.371Z,10.23
2019-06-20T19:47:37.610Z,8.03
2019-06-20T19:50:11.613Z,7.05
2019-06-20T19:52:44.923Z,8.70
2019-06-20T19:55:18.865Z,6.83
2019-06-20T19:57:51.950Z,7.15
2019-06-20T20:00:25.451Z,7.17
2019-06-20T20:02:59.796Z,8.73
2019-06-20T20:05:33.053Z,7.30
2019-06-20T20:08:06.657Z,7.53
2019-06-20T20:10:46.109Z,9.80
2019-06-20T20:13:19.609Z,8.30
2019-06-20T20:15:52.793Z,9.40
2019-06-20T20:18:28.656Z,13.60
2019-06-20T20:21:03.192Z,12.78
2019-06-20T20:23:36.601Z,12.18
2019-06-20T20:26:09.785Z,9.73
2019-06-20T20:28:43.629Z,9.85
2019-06-20T20:31:16.963Z,12.43
2019-06-20T20:34:19.931Z,10.93
2019-06-20T20:36:54.848Z,18.57
2019-06-20T20:39:29.602Z,18.70
2019-06-20T20:42:03.028Z,16.90
2019-06-20T20:44:37.467Z,13.48
2019-06-20T20:47:10.956Z,15.23
2019-06-20T20:49:44.470Z,12.63
2019-06-20T20:52:18.882Z,12.73
2019-06-20T20:54:54.767Z,9.23
2019-06-20T20:57:33.011Z,8.73
2019-06-20T21:00:09.028Z,7.80
2019-06-20T21:02:43.142Z,9.00
2019-06-20T21:05:16.473Z,7.53
2019-06-20T21:07:49.925Z,8.20
2019-06-20T21:10:24.874Z,11.22
2019-06-20T21:12:58.076Z,10.53
2019-06-20T21:15:31.568Z,11.33
2019-06-20T21:18:04.920Z,11.18
2019-06-20T21:20:38.104Z,9.43
2019-06-20T21:23:11.596Z,9.48
2019-06-20T21:25:44.843Z,9.48
2019-06-20T21:28:18.118Z,11.43
2019-06-20T21:30:51.384Z,11.65
2019-06-20T21:33:25.215Z,10.28
2019-06-20T21:36:08.431Z,12.00
2019-06-20T21:38:33.710Z,9.50
2019-06-20T21:41:07.102Z,10.32
2019-06-20T21:43:40.488Z,9.23
2019-06-20T21:46:13.694Z,10.40
2019-06-20T21:48:46.955Z,11.22
2019-06-20T21:51:20.273Z,9.63
2019-06-20T21:53:53.456Z,9.28
2019-06-20T21:56:26.600Z,8.63
2019-06-20T21:58:59.713Z,12.68
2019-06-20T22:01:33.157Z,12.73
2019-06-20T22:04:07.227Z,11.33
2019-06-20T22:06:40.462Z,10.48
2019-06-20T22:09:14.379Z,15.72
2019-06-20T22:11:47.973Z,14.47
2019-06-20T22:14:22.443Z,9.73
2019-06-20T22:16:55.595Z,10.00
2019-06-20T22:19:28.914Z,12.98
2019-06-20T22:22:02.102Z,8.63
2019-06-20T22:24:35.400Z,8.75
2019-06-20T22:27:08.618Z,9.93
2019-06-20T22:29:41.876Z,10.68
2019-06-20T22:32:15.181Z,12.23
2019-06-20T22:34:48.529Z,12.07
2019-06-20T22:37:21.726Z,9.98
2019-06-20T22:39:54.990Z,8.58
2019-06-20T22:42:28.400Z,13.03
2019-06-20T22:45:01.741Z,8.65
2019-06-20T22:47:36.066Z,9.75
2019-06-20T22:50:10.184Z,10.40
2019-06-20T22:52:43.546Z,13.32
2019-06-20T22:55:17.032Z,9.90
2019-06-20T22:57:50.349Z,10.20
2019-06-20T23:00:23.733Z,9.80
2019-06-20T23:02:57.275Z,12.28
2019-06-20T23:05:30.744Z,11.57
2019-06-20T23:08:04.337Z,13.72
2019-06-20T23:10:37.865Z,9.63
2019-06-20T23:13:11.288Z,13.22
2019-06-20T23:15:44.743Z,12.90
2019-06-20T23:18:17.982Z,12.33
2019-06-20T23:21:03.999Z,12.25
2019-06-20T23:23:26.126Z,9.38
2019-06-20T23:26:01.233Z,11.53
2019-06-20T23:28:34.501Z,10.63
2019-06-20T23:31:07.756Z,9.33
2019-06-20T23:33:40.852Z,12.98
2019-06-20T23:36:14.361Z,14.05
2019-06-20T23:38:47.527Z,14.75
2019-06-20T23:41:21.077Z,15.18
2019-06-20T23:43:54.395Z,10.53
2019-06-20T23:46:27.659Z,11.88
2019-06-20T23:49:00.998Z,11.63
2019-06-20T23:51:36.263Z,12.80
2019-06-20T23:54:09.373Z,16.97
2019-06-20T23:56:42.814Z,14.28
2019-06-20T23:59:16.043Z,9.58
